createdAt,value
2018-07-03T00:01:46.239Z,21.80
2018-07-03T00:04:14.437Z,21.60
2018-07-03T00:06:42.683Z,21.50
2018-07-03T00:09:11.036Z,21.30
2018-07-03T00:28:58.273Z,20.80
2018-07-03T00:31:26.540Z,20.80
2018-07-03T00:33:54.746Z,21.00
2018-07-03T00:36:22.995Z,21.20
2018-07-03T00:38:51.188Z,21.20
2018-07-03T00:41:19.393Z,21.20
2018-07-03T00:43:47.598Z,21.20
2018-07-03T00:46:15.769Z,21.10
2018-07-03T00:48:44.013Z,21.10
2018-07-03T00:51:12.180Z,21.10
2018-07-03T00:53:40.399Z,20.70
2018-07-03T00:56:08.583Z,20.70
2018-07-03T00:58:36.798Z,20.70
2018-07-03T01:01:04.994Z,20.80
2018-07-03T01:03:33.203Z,20.60
2018-07-03T01:06:01.454Z,20.60
2018-07-03T01:08:29.755Z,20.50
2018-07-03T01:10:57.936Z,20.50
2018-07-03T01:13:26.148Z,20.40
2018-07-03T01:15:54.327Z,20.30
2018-07-03T01:18:22.530Z,20.00
2018-07-03T01:20:50.733Z,20.10
2018-07-03T01:23:18.941Z,20.10
2018-07-03T01:25:47.139Z,20.00
2018-07-03T01:28:15.378Z,19.90
2018-07-03T01:30:43.597Z,20.00
2018-07-03T01:33:11.830Z,20.20
2018-07-03T01:35:40.025Z,20.30
2018-07-03T01:38:08.229Z,19.90
2018-07-03T01:40:36.432Z,19.70
2018-07-03T01:43:04.601Z,19.80
2018-07-03T01:45:32.817Z,20.00
2018-07-03T01:48:01.016Z,19.90
2018-07-03T01:50:29.219Z,20.00
2018-07-03T01:52:57.486Z,20.10
2018-07-03T01:55:25.731Z,20.00
2018-07-03T01:57:53.962Z,19.90
2018-07-03T02:00:22.194Z,19.70
2018-07-03T02:02:50.397Z,19.40
2018-07-03T02:05:18.605Z,19.60
2018-07-03T02:07:46.893Z,19.50
2018-07-03T02:10:15.115Z,19.50
2018-07-03T02:12:43.347Z,19.70
2018-07-03T02:15:11.545Z,19.70
2018-07-03T02:17:39.809Z,19.70
2018-07-03T02:20:08.058Z,19.50
2018-07-03T02:22:36.362Z,19.60
2018-07-03T02:25:04.689Z,19.60
2018-07-03T02:27:32.924Z,19.30
2018-07-03T02:30:01.172Z,19.10
2018-07-03T02:32:29.412Z,19.10
2018-07-03T02:34:57.664Z,19.00
2018-07-03T02:37:25.937Z,19.10
2018-07-03T02:39:54.190Z,19.30
2018-07-03T02:42:22.466Z,19.40
2018-07-03T02:44:50.720Z,19.40
2018-07-03T02:47:18.984Z,19.10
2018-07-03T02:49:47.198Z,19.00
2018-07-03T02:52:15.465Z,19.10
2018-07-03T02:54:43.748Z,19.00
2018-07-03T02:57:12.069Z,19.00
2018-07-03T02:59:40.275Z,18.80
2018-07-03T03:02:08.489Z,19.00
2018-07-03T03:04:36.750Z,19.10
2018-07-03T03:07:05.001Z,18.80
2018-07-03T03:09:33.265Z,18.70
2018-07-03T03:12:01.482Z,18.70
2018-07-03T03:14:29.762Z,18.70
2018-07-03T03:16:57.990Z,18.70
2018-07-03T03:19:26.235Z,18.60
2018-07-03T03:21:54.626Z,18.40
2018-07-03T03:24:22.880Z,18.30
2018-07-03T03:26:51.086Z,18.30
2018-07-03T03:29:19.399Z,18.30
2018-07-03T03:31:47.648Z,18.30
2018-07-03T03:34:15.960Z,18.30
2018-07-03T03:36:44.193Z,18.20
2018-07-03T03:39:13.618Z,18.60
2018-07-03T03:41:41.845Z,18.70
2018-07-03T03:44:10.131Z,18.70
2018-07-03T03:46:38.407Z,18.40
2018-07-03T03:49:06.689Z,18.20
2018-07-03T03:51:34.988Z,18.10
2018-07-03T03:54:04.125Z,18.10
2018-07-03T03:56:32.431Z,18.10
2018-07-03T03:59:00.735Z,18.10
2018-07-03T04:01:28.990Z,18.00
2018-07-03T04:03:57.258Z,17.90
2018-07-03T04:06:25.524Z,18.00
2018-07-03T04:08:53.810Z,18.00
2018-07-03T04:11:22.516Z,17.90
2018-07-03T04:13:50.781Z,18.10
2018-07-03T04:16:19.043Z,18.00
2018-07-03T04:18:47.351Z,17.90
2018-07-03T04:21:15.628Z,18.10
2018-07-03T04:23:43.875Z,18.00
2018-07-03T04:26:12.110Z,17.90
2018-07-03T04:28:40.438Z,18.00
2018-07-03T04:31:08.694Z,18.10
2018-07-03T04:33:36.953Z,17.90
2018-07-03T04:36:05.179Z,18.00
2018-07-03T04:38:33.465Z,18.10
2018-07-03T04:41:01.740Z,18.10
2018-07-03T04:43:30.000Z,18.40
2018-07-03T04:45:58.240Z,18.30
2018-07-03T04:48:26.484Z,18.40
2018-07-03T04:50:54.714Z,18.50
2018-07-03T04:53:22.984Z,18.50
2018-07-03T04:55:51.243Z,18.40
2018-07-03T04:58:19.483Z,18.40
2018-07-03T05:00:47.759Z,18.50
2018-07-03T05:03:15.990Z,18.40
2018-07-03T05:05:44.253Z,18.30
2018-07-03T05:08:12.488Z,18.20
2018-07-03T05:10:40.710Z,18.10
2018-07-03T05:13:09.011Z,18.10
2018-07-03T05:15:37.278Z,18.30
2018-07-03T05:18:05.570Z,18.30
2018-07-03T05:20:34.714Z,18.20
2018-07-03T05:23:02.992Z,18.10
2018-07-03T05:25:31.328Z,17.90
2018-07-03T05:27:59.516Z,18.00
2018-07-03T05:30:27.914Z,18.10
2018-07-03T05:32:56.121Z,18.00
2018-07-03T05:35:24.401Z,18.10
2018-07-03T05:37:52.652Z,18.20
2018-07-03T05:40:20.880Z,18.20
2018-07-03T05:42:49.109Z,18.40
2018-07-03T05:45:17.371Z,18.40
2018-07-03T05:47:45.725Z,18.50
2018-07-03T05:50:13.979Z,18.60
2018-07-03T05:52:42.202Z,18.80
2018-07-03T05:55:10.457Z,18.60
2018-07-03T05:57:38.723Z,18.60
2018-07-03T06:00:07.298Z,18.90
2018-07-03T06:02:35.563Z,19.10
2018-07-03T06:05:03.826Z,19.20
2018-07-03T06:07:32.134Z,19.10
2018-07-03T06:10:00.451Z,18.90
2018-07-03T06:12:28.696Z,19.10
2018-07-03T06:14:57.096Z,19.30
2018-07-03T06:17:25.330Z,19.30
2018-07-03T06:19:53.590Z,19.10
2018-07-03T06:22:28.183Z,18.90
2018-07-03T06:24:56.407Z,19.10
2018-07-03T06:27:24.641Z,19.20
2018-07-03T06:29:52.884Z,19.00
2018-07-03T06:32:21.173Z,19.20
2018-07-03T06:34:49.445Z,19.40
2018-07-03T06:37:17.757Z,19.40
2018-07-03T06:39:45.966Z,19.30
2018-07-03T06:42:14.219Z,19.50
2018-07-03T06:44:42.476Z,19.70
2018-07-03T06:47:10.677Z,19.80
2018-07-03T06:49:38.892Z,19.70
2018-07-03T06:52:07.152Z,19.70
2018-07-03T06:54:35.359Z,20.00
2018-07-03T06:57:03.623Z,19.70
2018-07-03T06:59:31.824Z,19.80
2018-07-03T07:02:00.063Z,20.00
2018-07-03T07:07:18.965Z,19.90
2018-07-03T07:09:47.198Z,20.10
2018-07-03T07:12:15.418Z,20.10
2018-07-03T07:14:43.973Z,20.30
2018-07-03T07:17:12.337Z,20.40
2018-07-03T07:19:40.680Z,20.30
2018-07-03T07:22:08.902Z,20.20
2018-07-03T07:24:37.160Z,20.00
2018-07-03T07:27:05.585Z,20.20
2018-07-03T07:29:33.830Z,20.30
2018-07-03T07:32:02.074Z,20.50
2018-07-03T07:34:30.321Z,20.10
2018-07-03T07:41:54.560Z,20.00
2018-07-03T07:44:22.787Z,20.20
2018-07-03T07:46:51.026Z,20.30
2018-07-03T07:51:47.306Z,20.20
2018-07-03T07:54:15.566Z,20.20
2018-07-03T07:56:43.838Z,20.30
2018-07-03T07:59:12.095Z,20.70
2018-07-03T08:01:40.421Z,20.60
2018-07-03T08:04:08.667Z,20.70
2018-07-03T08:06:37.000Z,20.80
2018-07-03T08:09:08.017Z,20.60
2018-07-03T08:11:36.271Z,20.70
2018-07-03T08:14:04.632Z,21.00
2018-07-03T08:16:32.907Z,21.10
2018-07-03T08:19:01.318Z,21.20
2018-07-03T08:21:29.504Z,21.20
2018-07-03T08:23:57.756Z,21.20
2018-07-03T08:26:25.974Z,21.20
2018-07-03T08:28:54.248Z,21.30
2018-07-03T08:31:22.508Z,21.60
2018-07-03T08:33:50.782Z,21.70
2018-07-03T08:36:19.070Z,21.80
2018-07-03T08:38:47.275Z,21.80
2018-07-03T08:41:15.500Z,22.00
2018-07-03T08:43:43.817Z,22.00
2018-07-03T08:46:12.074Z,22.00
2018-07-03T08:48:40.324Z,22.20
2018-07-03T08:51:08.577Z,22.20
2018-07-03T08:53:36.827Z,22.30
2018-07-03T08:56:05.097Z,22.30
2018-07-03T08:58:33.336Z,22.40
2018-07-03T09:01:01.598Z,22.50
2018-07-03T09:03:29.826Z,22.60
2018-07-03T09:05:58.059Z,22.60
2018-07-03T09:08:26.297Z,22.70
2018-07-03T09:10:54.528Z,22.70
2018-07-03T09:13:22.767Z,22.70
2018-07-03T09:15:51.009Z,22.80
2018-07-03T09:18:19.231Z,22.80
2018-07-03T09:20:47.542Z,22.90
2018-07-03T09:23:15.793Z,22.80
2018-07-03T09:25:44.031Z,22.90
2018-07-03T09:28:12.285Z,23.00
2018-07-03T09:30:40.651Z,23.00
2018-07-03T09:33:08.792Z,23.10
2018-07-03T09:35:37.046Z,23.10
2018-07-03T09:38:05.303Z,23.20
2018-07-03T09:40:33.567Z,23.20
2018-07-03T09:43:01.790Z,23.40
2018-07-03T09:45:33.714Z,23.50
2018-07-03T09:48:02.539Z,23.60
2018-07-03T09:50:31.222Z,23.00
2018-07-03T09:53:00.048Z,23.20
2018-07-03T09:55:28.892Z,23.60
2018-07-03T09:57:57.670Z,23.70
2018-07-03T10:00:31.771Z,23.90
2018-07-03T10:03:01.523Z,23.90
2018-07-03T10:05:31.409Z,24.00
2018-07-03T10:08:01.705Z,24.00
2018-07-03T10:10:30.591Z,24.10
2018-07-03T10:12:59.832Z,24.20
2018-07-03T10:32:49.841Z,25.30
2018-07-03T10:35:20.538Z,25.10
2018-07-03T10:37:49.326Z,25.40
2018-07-03T10:40:18.264Z,25.60
2018-07-03T10:42:47.574Z,25.80
2018-07-03T10:45:16.849Z,25.90
2018-07-03T10:47:45.634Z,25.90
2018-07-03T10:50:14.599Z,26.10
2018-07-03T11:10:03.124Z,26.60
2018-07-03T11:12:32.158Z,27.00
2018-07-03T11:15:00.893Z,27.30
2018-07-03T11:17:29.684Z,27.30
2018-07-03T11:19:58.724Z,27.30
2018-07-03T11:22:27.910Z,27.40
2018-07-03T11:24:56.918Z,27.60
2018-07-03T11:27:26.287Z,27.50
2018-07-03T11:29:55.373Z,27.70
2018-07-03T11:32:24.378Z,28.20
2018-07-03T11:34:53.657Z,28.60
2018-07-03T11:37:22.475Z,28.70
2018-07-03T11:39:51.727Z,28.70
2018-07-03T11:42:20.532Z,28.90
2018-07-03T11:44:49.553Z,28.80
2018-07-03T11:47:20.977Z,28.70
2018-07-03T11:49:49.809Z,28.70
2018-07-03T11:52:18.708Z,29.20
2018-07-03T11:54:48.523Z,29.40
2018-07-03T11:57:17.282Z,29.40
2018-07-03T11:59:46.295Z,29.10
2018-07-03T12:02:15.321Z,29.40
2018-07-03T12:04:44.376Z,29.40
2018-07-03T12:07:14.178Z,29.50
2018-07-03T12:09:44.147Z,29.50
2018-07-03T12:12:13.542Z,29.60
2018-07-03T12:14:43.335Z,29.70
2018-07-03T12:17:12.244Z,29.70
2018-07-03T12:19:41.058Z,29.50
2018-07-03T12:22:09.880Z,29.60
2018-07-03T12:24:38.679Z,29.60
2018-07-03T12:27:08.005Z,29.60
2018-07-03T12:29:37.089Z,29.60
2018-07-03T12:32:06.668Z,29.90
2018-07-03T12:37:03.806Z,30.10
2018-07-03T12:39:32.636Z,30.00
2018-07-03T12:42:01.456Z,30.00
2018-07-03T12:44:30.295Z,30.10
2018-07-03T12:46:59.169Z,30.10
2018-07-03T12:49:28.866Z,30.20
2018-07-03T13:09:17.680Z,30.20
2018-07-03T13:11:46.526Z,30.50
2018-07-03T13:14:15.425Z,30.60
2018-07-03T13:16:44.701Z,30.90
2018-07-03T13:19:13.898Z,31.10
2018-07-03T13:21:43.812Z,31.00
2018-07-03T13:41:33.548Z,31.30
2018-07-03T13:44:03.548Z,31.20
2018-07-03T13:46:32.377Z,31.70
2018-07-03T13:49:01.377Z,31.90
2018-07-03T13:51:30.315Z,32.00
2018-07-03T13:53:59.210Z,32.20
2018-07-03T13:56:28.015Z,32.30
2018-07-03T13:58:56.755Z,32.30
2018-07-03T14:01:25.628Z,32.00
2018-07-03T14:03:54.669Z,32.30
2018-07-03T14:06:23.595Z,32.30
2018-07-03T14:08:53.868Z,32.30
2018-07-03T14:11:22.623Z,32.10
2018-07-03T14:13:51.466Z,31.50
2018-07-03T14:16:20.458Z,31.90
2018-07-03T14:18:50.132Z,31.90
2018-07-03T14:38:37.559Z,31.90
2018-07-03T14:41:06.308Z,31.90
2018-07-03T14:43:36.096Z,31.50
2018-07-03T14:46:05.055Z,31.40
2018-07-03T14:48:35.056Z,31.20
2018-07-03T14:51:04.669Z,31.10
2018-07-03T14:53:33.525Z,30.80
2018-07-03T14:56:02.312Z,30.80
2018-07-03T14:58:31.539Z,30.70
2018-07-03T15:01:00.432Z,30.70
2018-07-03T15:03:29.398Z,30.90
2018-07-03T15:05:59.193Z,31.20
2018-07-03T15:08:28.114Z,30.70
2018-07-03T15:10:57.031Z,30.80
2018-07-03T15:13:25.970Z,30.90
2018-07-03T15:15:54.962Z,31.60
2018-07-03T15:18:25.770Z,32.00
2018-07-03T15:20:54.582Z,32.00
2018-07-03T15:23:24.200Z,32.10
2018-07-03T15:25:53.131Z,31.00
2018-07-03T15:28:22.756Z,30.50
2018-07-03T15:30:52.278Z,31.10
2018-07-03T15:33:21.206Z,31.00
2018-07-03T15:53:08.352Z,32.50
2018-07-03T15:55:37.200Z,32.50
2018-07-03T15:58:06.647Z,32.20
2018-07-03T16:00:35.425Z,30.60
2018-07-03T16:03:15.439Z,31.50
2018-07-03T16:05:59.168Z,31.90
2018-07-03T16:09:36.213Z,31.50
2018-07-03T16:12:05.255Z,31.50
2018-07-03T16:14:35.135Z,32.20
2018-07-03T16:17:04.889Z,32.20
2018-07-03T16:19:38.951Z,32.30
2018-07-03T16:22:07.212Z,30.60
2018-07-03T16:24:35.392Z,31.20
2018-07-03T16:27:03.583Z,32.10
2018-07-03T16:29:31.822Z,32.50
2018-07-03T16:31:59.997Z,32.40
2018-07-03T16:34:28.197Z,32.60
2018-07-03T16:36:56.375Z,32.70
2018-07-03T16:39:24.589Z,32.70
2018-07-03T16:41:52.728Z,32.00
2018-07-03T16:44:20.897Z,32.20
2018-07-03T16:46:49.060Z,32.30
2018-07-03T16:49:17.305Z,32.40
2018-07-03T16:51:45.495Z,32.50
2018-07-03T16:54:13.707Z,32.40
2018-07-03T16:56:41.903Z,31.80
2018-07-03T16:59:10.083Z,31.90
2018-07-03T17:01:38.262Z,31.90
2018-07-03T17:04:06.436Z,32.30
2018-07-03T17:06:34.659Z,32.40
2018-07-03T17:09:03.079Z,32.40
2018-07-03T17:11:31.362Z,30.90
2018-07-03T17:13:59.916Z,30.60
2018-07-03T17:16:28.293Z,30.10
2018-07-03T17:19:01.895Z,30.20
2018-07-03T17:21:30.213Z,30.60
2018-07-03T17:23:58.425Z,30.80
2018-07-03T17:26:26.637Z,29.90
2018-07-03T17:28:54.837Z,29.50
2018-07-03T17:31:23.241Z,30.10
2018-07-03T17:33:51.523Z,29.60
2018-07-03T17:36:19.726Z,29.80
2018-07-03T17:38:47.985Z,29.20
2018-07-03T17:41:27.698Z,29.60
2018-07-03T17:46:29.440Z,29.80
2018-07-03T17:48:57.651Z,29.40
2018-07-03T17:53:53.843Z,29.80
2018-07-03T17:56:22.174Z,29.60
2018-07-03T17:58:50.534Z,29.60
2018-07-03T18:01:18.789Z,29.20
2018-07-03T18:03:47.012Z,29.10
2018-07-03T18:06:15.268Z,29.20
2018-07-03T18:08:43.501Z,29.30
2018-07-03T18:13:39.734Z,28.80
2018-07-03T18:16:08.142Z,28.70
2018-07-03T18:18:36.360Z,28.60
2018-07-03T18:21:04.578Z,28.50
2018-07-03T18:23:32.780Z,28.40
2018-07-03T18:26:00.993Z,28.50
2018-07-03T18:28:29.161Z,28.60
2018-07-03T18:30:57.386Z,28.70
2018-07-03T18:33:25.623Z,29.20
2018-07-03T18:35:53.854Z,29.60
2018-07-03T18:38:22.054Z,29.70
2018-07-03T18:40:50.267Z,29.60
2018-07-03T18:43:18.536Z,29.60
2018-07-03T18:45:46.767Z,29.50
2018-07-03T18:48:14.986Z,29.20
2018-07-03T18:50:43.208Z,29.10
2018-07-03T18:53:11.440Z,29.10
2018-07-03T18:55:39.650Z,28.90
2018-07-03T18:58:07.849Z,28.90
2018-07-03T19:00:36.060Z,28.80
2018-07-03T19:05:32.250Z,28.40
2018-07-03T19:08:00.495Z,28.20
2018-07-03T19:10:28.727Z,28.20
2018-07-03T19:12:56.963Z,28.20
2018-07-03T19:17:53.142Z,27.80
2018-07-03T19:20:21.425Z,27.70
2018-07-03T19:22:49.630Z,27.70
2018-07-03T19:25:17.847Z,27.70
2018-07-03T19:27:46.056Z,27.50
2018-07-03T19:30:14.259Z,27.40
2018-07-03T19:32:42.512Z,27.30
2018-07-03T19:35:10.724Z,27.30
2018-07-03T19:37:38.962Z,27.20
2018-07-03T19:40:07.452Z,27.10
2018-07-03T19:42:41.715Z,26.90
2018-07-03T19:45:09.943Z,26.80
2018-07-03T19:50:06.140Z,26.60
2018-07-03T19:52:34.440Z,26.60
2018-07-03T19:55:02.677Z,26.60
2018-07-03T19:57:30.890Z,26.50
2018-07-03T20:00:00.024Z,26.40
2018-07-03T20:02:28.236Z,26.20
2018-07-03T20:04:56.462Z,26.10
2018-07-03T20:07:24.730Z,26.00
2018-07-03T20:09:52.901Z,26.00
2018-07-03T20:12:21.138Z,26.00
2018-07-03T20:17:17.354Z,26.10
2018-07-03T20:19:45.579Z,26.00
2018-07-03T20:22:13.815Z,25.90
2018-07-03T20:24:42.071Z,25.90
2018-07-03T20:27:10.291Z,25.80
2018-07-03T20:29:38.522Z,25.80
2018-07-03T20:32:06.799Z,25.80
2018-07-03T20:34:35.010Z,25.80
2018-07-03T20:37:03.252Z,25.70
2018-07-03T20:39:31.481Z,25.40
2018-07-03T20:41:59.684Z,25.40
2018-07-03T20:46:55.863Z,25.60
2018-07-03T20:49:24.106Z,25.50
2018-07-03T20:51:52.355Z,25.40
2018-07-03T20:54:20.568Z,25.40
2018-07-03T20:56:48.808Z,25.40
2018-07-03T20:59:17.013Z,25.30
2018-07-03T21:01:45.230Z,25.20
2018-07-03T21:04:13.562Z,25.00
2018-07-03T21:06:41.654Z,25.00
2018-07-03T21:09:10.780Z,24.90
2018-07-03T21:11:39.071Z,24.80
2018-07-03T21:14:07.242Z,24.80
2018-07-03T21:19:03.436Z,24.70
2018-07-03T21:21:31.614Z,24.70
2018-07-03T21:23:59.890Z,24.70
2018-07-03T21:26:28.057Z,24.70
2018-07-03T21:28:56.256Z,24.50
2018-07-03T21:31:24.417Z,24.50
2018-07-03T21:33:52.618Z,24.40
2018-07-03T21:36:20.822Z,24.30
2018-07-03T21:38:49.084Z,24.30
2018-07-03T21:41:17.223Z,24.10
2018-07-03T21:43:45.432Z,24.10
2018-07-03T21:46:13.653Z,24.10
2018-07-03T21:48:41.841Z,24.00
2018-07-03T21:51:10.025Z,24.00
2018-07-03T21:53:38.247Z,24.10
2018-07-03T21:56:06.432Z,24.20
2018-07-03T21:58:34.657Z,24.20
2018-07-03T22:03:30.825Z,24.20
2018-07-03T22:05:59.019Z,24.00
2018-07-03T22:08:27.257Z,23.90
2018-07-03T22:10:55.409Z,23.60
2018-07-03T22:13:23.601Z,23.50
2018-07-03T22:15:51.810Z,23.20
2018-07-03T22:18:20.013Z,23.00
2018-07-03T22:20:48.212Z,22.90
2018-07-03T22:23:16.430Z,22.70
2018-07-03T22:25:44.615Z,22.70
2018-07-03T22:30:40.764Z,23.10
2018-07-03T22:33:08.945Z,23.20
2018-07-03T22:35:37.162Z,23.10
2018-07-03T22:38:05.371Z,23.20
2018-07-03T22:40:33.568Z,23.20
2018-07-03T22:43:01.734Z,23.30
2018-07-03T22:45:29.941Z,23.30
2018-07-03T22:47:58.122Z,23.20
2018-07-03T22:50:26.352Z,23.00
2018-07-03T22:52:54.586Z,22.70
2018-07-03T22:55:22.753Z,22.40
2018-07-03T22:57:50.940Z,22.50
2018-07-03T23:00:19.133Z,22.70
2018-07-03T23:05:15.335Z,22.80
2018-07-03T23:07:43.589Z,22.90
2018-07-03T23:10:11.810Z,22.80
2018-07-03T23:12:40.008Z,22.80
2018-07-03T23:15:08.184Z,22.90
2018-07-03T23:17:36.348Z,22.80
2018-07-03T23:20:04.552Z,22.80
2018-07-03T23:22:32.762Z,22.80
2018-07-03T23:25:00.966Z,22.80
2018-07-03T23:27:29.122Z,22.80
2018-07-03T23:29:57.343Z,22.70
2018-07-03T23:32:25.542Z,22.60
2018-07-03T23:34:53.740Z,22.60
2018-07-03T23:37:21.934Z,22.50
2018-07-03T23:39:50.133Z,22.50
2018-07-03T23:42:18.327Z,22.40
2018-07-03T23:47:25.761Z,22.40
2018-07-03T23:50:05.352Z,22.20
2018-07-03T23:52:44.839Z,22.20
2018-07-03T23:55:24.351Z,22.10
